Mike Weisend — WDF7611 — position and weather

sailwx.info

Track history (hours):
 
Tides and Currents Weather Stations Pressure Air Temp Water Temp Dewpoint Dewpoint Depression Visibility Wind Speed Wind Dir Waves Ship Positions

Mike Weisend

Owner: AEP River Operations LLC, Chesterfield, MO. More information available from US FCC via Universal Licensing System and Coast Guard Vessel Documentation Center.

Last reported at 2015-Jul-29 06:31 UTC. Time now 2015-Jul-29 17:56 UTC.
Position N 38°56' W 084°51'.

Length 54 m; draft 3 m.

Type: Towing. MMSI: 367486280.

Date/timePositionNaut miles runAvg speedWind from/ knotsBaromVisibWave heightAir tempDewpointWater temp
2015-Jul-29 06:31N 38°56' W 084°51'5 3.6
2015-Jul-29 05:07N 39°01' W 084°52'2 3.8
2015-Jul-29 04:31N 39°03' W 084°54'5 4.2
2015-Jul-29 03:22N 39°06' W 084°49'3 3.9
2015-Jul-29 02:32N 39°08' W 084°46'4 3.7
2015-Jul-29 01:32N 39°06' W 084°42'1 0.7
2015-Jul-29 00:32N 39°06' W 084°41'0 0.0
2015-Jul-28 23:32N 39°06' W 084°41'0 0.0
2015-Jul-28 22:33N 39°06' W 084°41'0 0.0
2015-Jul-28 21:33N 39°06' W 084°41'0 0.0
2015-Jul-28 20:33N 39°06' W 084°41'0 0.0
2015-Jul-28 19:33N 39°06' W 084°41'0 0.0
2015-Jul-28 18:32N 39°06' W 084°41'0 0.5
2015-Jul-28 17:33N 39°06' W 084°41'0 0.0
2015-Jul-28 16:32N 39°06' W 084°41'0 0.0
2015-Jul-28 15:33N 39°06' W 084°41'1 0.6
2015-Jul-28 14:33N 39°06' W 084°41'4 3.6
2015-Jul-28 13:33N 39°04' W 084°37'1 1.3
2015-Jul-28 12:33N 39°05' W 084°35'0 0.0
2015-Jul-28 11:32N 39°05' W 084°35'0 0.0
2015-Jul-28 10:33N 39°05' W 084°35'1 1.0
2015-Jul-28 09:32N 39°05' W 084°34'4 3.6
2015-Jul-28 08:32N 39°06' W 084°29'3 2.8
2015-Jul-28 07:33N 39°05' W 084°26'3 3.5
2015-Jul-28 06:33N 39°03' W 084°24'0 0.3
2015-Jul-28 05:32N 39°02' W 084°23'0 0.1
2015-Jul-28 04:32N 39°02' W 084°23'0 0.0
2015-Jul-28 03:32N 39°02' W 084°23'3 3.4
2015-Jul-28 02:32N 39°01' W 084°19'4 4.5
2015-Jul-28 01:33N 38°57' W 084°17'5 4.6
2015-Jul-28 00:32N 38°53' W 084°14'3 2.7
2015-Jul-27 23:32N 38°50' W 084°14'4 3.7
2015-Jul-27 22:33N 38°48' W 084°11'2 1.5
2015-Jul-27 21:33N 38°48' W 084°09'0 0.0
2015-Jul-27 20:33N 38°48' W 084°09'3 3.3
2015-Jul-27 19:33N 38°46' W 084°05'8 3.9
2015-Jul-27 17:33N 38°46' W 083°55'24 3.3
2015-Jul-27 10:15N 38°40' W 083°25'34 1.1
2015-Jul-26 04:29N 38°33' W 082°43'70 1.9
2015-Jul-24 15:19N 38°48' W 084°10'1 0.6
2015-Jul-24 14:19N 38°48' W 084°11'3 3.3
2015-Jul-24 13:33N 38°49' W 084°14'2 1.7
2015-Jul-24 12:33N 38°51' W 084°14'0 0.0
2015-Jul-24 11:33N 38°51' W 084°14'0 0.0
2015-Jul-24 10:32N 38°51' W 084°14'0 0.2
2015-Jul-24 09:31N 38°51' W 084°14'0 0.0
2015-Jul-24 08:33N 38°51' W 084°14'0 0.0
2015-Jul-24 07:32N 38°51' W 084°14'0 0.1
2015-Jul-24 06:31N 38°50' W 084°14'0 0.2
2015-Jul-24 05:32N 38°51' W 084°14'0 0.1
2015-Jul-24 04:33N 38°51' W 084°14'3 2.7
2015-Jul-24 03:33N 38°53' W 084°14'4 3.6
2015-Jul-24 02:33N 38°56' W 084°17'4 3.5
2015-Jul-24 01:33N 38°60' W 084°18'3 3.3
2015-Jul-24 00:33N 39°02' W 084°21'4 3.6
2015-Jul-23 23:33N 39°03' W 084°25'3 3.5
2015-Jul-23 22:33N 39°06' W 084°27'2 2.4
2015-Jul-23 21:33N 39°06' W 084°30'2 2.1
2015-Jul-23 20:33N 39°06' W 084°32'1 0.9
2015-Jul-23 19:33N 39°06' W 084°33'3 2.9
2015-Jul-23 18:32N 39°04' W 084°37'2 2.3
2015-Jul-23 17:33N 39°05' W 084°39'0 0.0
2015-Jul-23 16:32N 39°05' W 084°39'0 0.0
2015-Jul-23 15:33N 39°05' W 084°39'0 0.0
2015-Jul-23 14:33N 39°05' W 084°39'0 0.0
2015-Jul-23 13:33N 39°05' W 084°39'0 0.0
2015-Jul-23 12:33N 39°05' W 084°39'0 0.0
2015-Jul-23 11:32N 39°05' W 084°39'2 2.2
2015-Jul-23 10:32N 39°06' W 084°42'3 3.0
2015-Jul-23 09:33N 39°09' W 084°44'3 3.2
2015-Jul-23 08:31N 39°07' W 084°48'3 3.0
2015-Jul-23 07:32N 39°05' W 084°51'3 2.8
2015-Jul-23 06:32N 39°03' W 084°54'4 3.2
2015-Jul-23 05:16N 39°00' W 084°51'3 3.1
2015-Jul-23 04:26N 38°57' W 084°50'  
Track history (hours):
 
Tides and Currents Weather Stations Pressure Air Temp Water Temp Dewpoint Dewpoint Depression Visibility Wind Speed Wind Dir Waves Ship Positions

Mike Weisend

Owner: AEP River Operations LLC, Chesterfield, MO. More information available from US FCC via Universal Licensing System and Coast Guard Vessel Documentation Center.

Last reported at 2015-Jul-29 06:31 UTC. Time now 2015-Jul-29 17:56 UTC.
Position N 38°56' W 084°51'.

Length 54 m; draft 3 m.

Type: Towing. MMSI: 367486280.

Date/timePositionNaut miles runAvg speedWind from/ knotsBaromVisibWave heightAir tempDewpointWater temp
2015-Jul-29 06:31N 38°56' W 084°51'5 3.6
2015-Jul-29 05:07N 39°01' W 084°52'2 3.8
2015-Jul-29 04:31N 39°03' W 084°54'5 4.2
2015-Jul-29 03:22N 39°06' W 084°49'3 3.9
2015-Jul-29 02:32N 39°08' W 084°46'4 3.7
2015-Jul-29 01:32N 39°06' W 084°42'1 0.7
2015-Jul-29 00:32N 39°06' W 084°41'0 0.0
2015-Jul-28 23:32N 39°06' W 084°41'0 0.0
2015-Jul-28 22:33N 39°06' W 084°41'0 0.0
2015-Jul-28 21:33N 39°06' W 084°41'0 0.0
2015-Jul-28 20:33N 39°06' W 084°41'0 0.0
2015-Jul-28 19:33N 39°06' W 084°41'0 0.0
2015-Jul-28 18:32N 39°06' W 084°41'0 0.5
2015-Jul-28 17:33N 39°06' W 084°41'0 0.0
2015-Jul-28 16:32N 39°06' W 084°41'0 0.0
2015-Jul-28 15:33N 39°06' W 084°41'1 0.6
2015-Jul-28 14:33N 39°06' W 084°41'4 3.6
2015-Jul-28 13:33N 39°04' W 084°37'1 1.3
2015-Jul-28 12:33N 39°05' W 084°35'0 0.0
2015-Jul-28 11:32N 39°05' W 084°35'0 0.0
2015-Jul-28 10:33N 39°05' W 084°35'1 1.0
2015-Jul-28 09:32N 39°05' W 084°34'4 3.6
2015-Jul-28 08:32N 39°06' W 084°29'3 2.8
2015-Jul-28 07:33N 39°05' W 084°26'3 3.5
2015-Jul-28 06:33N 39°03' W 084°24'0 0.3
2015-Jul-28 05:32N 39°02' W 084°23'0 0.1
2015-Jul-28 04:32N 39°02' W 084°23'0 0.0
2015-Jul-28 03:32N 39°02' W 084°23'3 3.4
2015-Jul-28 02:32N 39°01' W 084°19'4 4.5
2015-Jul-28 01:33N 38°57' W 084°17'5 4.6
2015-Jul-28 00:32N 38°53' W 084°14'3 2.7
2015-Jul-27 23:32N 38°50' W 084°14'4 3.7
2015-Jul-27 22:33N 38°48' W 084°11'2 1.5
2015-Jul-27 21:33N 38°48' W 084°09'0 0.0
2015-Jul-27 20:33N 38°48' W 084°09'3 3.3
2015-Jul-27 19:33N 38°46' W 084°05'8 3.9
2015-Jul-27 17:33N 38°46' W 083°55'24 3.3
2015-Jul-27 10:15N 38°40' W 083°25'34 1.1
2015-Jul-26 04:29N 38°33' W 082°43'70 1.9
2015-Jul-24 15:19N 38°48' W 084°10'1 0.6
2015-Jul-24 14:19N 38°48' W 084°11'3 3.3
2015-Jul-24 13:33N 38°49' W 084°14'2 1.7
2015-Jul-24 12:33N 38°51' W 084°14'0 0.0
2015-Jul-24 11:33N 38°51' W 084°14'0 0.0
2015-Jul-24 10:32N 38°51' W 084°14'0 0.2
2015-Jul-24 09:31N 38°51' W 084°14'0 0.0
2015-Jul-24 08:33N 38°51' W 084°14'0 0.0
2015-Jul-24 07:32N 38°51' W 084°14'0 0.1
2015-Jul-24 06:31N 38°50' W 084°14'0 0.2
2015-Jul-24 05:32N 38°51' W 084°14'0 0.1
2015-Jul-24 04:33N 38°51' W 084°14'3 2.7
2015-Jul-24 03:33N 38°53' W 084°14'4 3.6
2015-Jul-24 02:33N 38°56' W 084°17'4 3.5
2015-Jul-24 01:33N 38°60' W 084°18'3 3.3
2015-Jul-24 00:33N 39°02' W 084°21'4 3.6
2015-Jul-23 23:33N 39°03' W 084°25'3 3.5
2015-Jul-23 22:33N 39°06' W 084°27'2 2.4
2015-Jul-23 21:33N 39°06' W 084°30'2 2.1
2015-Jul-23 20:33N 39°06' W 084°32'1 0.9
2015-Jul-23 19:33N 39°06' W 084°33'3 2.9
2015-Jul-23 18:32N 39°04' W 084°37'2 2.3
2015-Jul-23 17:33N 39°05' W 084°39'0 0.0
2015-Jul-23 16:32N 39°05' W 084°39'0 0.0
2015-Jul-23 15:33N 39°05' W 084°39'0 0.0
2015-Jul-23 14:33N 39°05' W 084°39'0 0.0
2015-Jul-23 13:33N 39°05' W 084°39'0 0.0
2015-Jul-23 12:33N 39°05' W 084°39'0 0.0
2015-Jul-23 11:32N 39°05' W 084°39'2 2.2
2015-Jul-23 10:32N 39°06' W 084°42'3 3.0
2015-Jul-23 09:33N 39°09' W 084°44'3 3.2
2015-Jul-23 08:31N 39°07' W 084°48'3 3.0
2015-Jul-23 07:32N 39°05' W 084°51'3 2.8
2015-Jul-23 06:32N 39°03' W 084°54'4 3.2
2015-Jul-23 05:16N 39°00' W 084°51'3 3.1
2015-Jul-23 04:26N 38°57' W 084°50'  

Dump ship's entire track history